Terminal Aerodrome Forecast
Issued by NWS Melbourne, FL

Home | Current Version | Previous Version | Text Only | Print | Product List | Glossary On
Versions: 1 2 3 4 5 6 7 8 9 10 11 12 13 14 15 16 17 18 19 20 21
521
FTUS42 KMLB 261120
TAFVRB
TAF
KVRB 261120Z 2612/2712 34008KT P6SM FEW012
     FM261300 35010KT P6SM SCT010
     FM261500 03013G19KT P6SM FEW035
     FM270000 05010KT P6SM SCT035
     FM270600 08009KT P6SM BKN035=

USA.gov is the U.S. government's official web portal to all federal, state and local government web resources and services.